sensor_id;sensor_type;location;lat;lon;timestamp;P1;durP1;ratioP1;P2;durP2;ratioP2
3307;SDS011;1666;48.898;9.182;2022-08-25T00:00:28;4.25;;;2.80;;
3307;SDS011;1666;48.898;9.182;2022-08-25T00:02:57;5.07;;;3.15;;
3307;SDS011;1666;48.898;9.182;2022-08-25T00:05:30;2.85;;;2.50;;
3307;SDS011;1666;48.898;9.182;2022-08-25T00:08:01;3.10;;;2.80;;
3307;SDS011;1666;48.898;9.182;2022-08-25T00:10:36;3.10;;;2.80;;
3307;SDS011;1666;48.898;9.182;2022-08-25T00:13:07;3.33;;;2.88;;
3307;SDS011;1666;48.898;9.182;2022-08-25T00:15:37;4.70;;;3.40;;
3307;SDS011;1666;48.898;9.182;2022-08-25T00:18:07;4.15;;;2.97;;
3307;SDS011;1666;48.898;9.182;2022-08-25T00:20:45;4.03;;;3.17;;
3307;SDS011;1666;48.898;9.182;2022-08-25T00:23:15;5.60;;;3.15;;
3307;SDS011;1666;48.898;9.182;2022-08-25T00:25:48;4.35;;;3.60;;
3307;SDS011;1666;48.898;9.182;2022-08-25T00:28:18;6.47;;;3.72;;
3307;SDS011;1666;48.898;9.182;2022-08-25T00:30:49;3.75;;;3.22;;
3307;SDS011;1666;48.898;9.182;2022-08-25T00:33:19;3.90;;;2.92;;
3307;SDS011;1666;48.898;9.182;2022-08-25T00:35:49;4.20;;;3.10;;
3307;SDS011;1666;48.898;9.182;2022-08-25T00:38:19;3.85;;;2.75;;
3307;SDS011;1666;48.898;9.182;2022-08-25T00:40:52;4.43;;;3.35;;
3307;SDS011;1666;48.898;9.182;2022-08-25T00:43:34;3.58;;;3.20;;
3307;SDS011;1666;48.898;9.182;2022-08-25T00:46:11;3.63;;;3.05;;
3307;SDS011;1666;48.898;9.182;2022-08-25T00:48:44;5.20;;;3.33;;
3307;SDS011;1666;48.898;9.182;2022-08-25T00:51:20;3.83;;;3.05;;
3307;SDS011;1666;48.898;9.182;2022-08-25T00:53:55;4.85;;;3.20;;
3307;SDS011;1666;48.898;9.182;2022-08-25T00:56:28;4.05;;;3.13;;
3307;SDS011;1666;48.898;9.182;2022-08-25T01:01:31;3.58;;;3.22;;
3307;SDS011;1666;48.898;9.182;2022-08-25T01:04:01;3.83;;;3.20;;
3307;SDS011;1666;48.898;9.182;2022-08-25T01:06:33;3.65;;;2.75;;
3307;SDS011;1666;48.898;9.182;2022-08-25T01:09:07;3.42;;;3.08;;
3307;SDS011;1666;48.898;9.182;2022-08-25T01:11:39;5.32;;;3.30;;
3307;SDS011;1666;48.898;9.182;2022-08-25T01:14:11;5.32;;;3.20;;
3307;SDS011;1666;48.898;9.182;2022-08-25T01:16:44;4.97;;;3.53;;
3307;SDS011;1666;48.898;9.182;2022-08-25T01:19:19;3.90;;;3.40;;
3307;SDS011;1666;48.898;9.182;2022-08-25T01:21:52;5.95;;;3.63;;
3307;SDS011;1666;48.898;9.182;2022-08-25T01:24:23;3.75;;;3.33;;
3307;SDS011;1666;48.898;9.182;2022-08-25T01:26:57;7.18;;;3.50;;
3307;SDS011;1666;48.898;9.182;2022-08-25T01:29:28;6.88;;;3.90;;
3307;SDS011;1666;48.898;9.182;2022-08-25T01:31:59;10.60;;;3.80;;
3307;SDS011;1666;48.898;9.182;2022-08-25T01:34:32;6.78;;;3.90;;
3307;SDS011;1666;48.898;9.182;2022-08-25T01:37:08;4.53;;;3.65;;
3307;SDS011;1666;48.898;9.182;2022-08-25T01:39:41;6.63;;;3.70;;
3307;SDS011;1666;48.898;9.182;2022-08-25T01:42:17;6.25;;;3.75;;
3307;SDS011;1666;48.898;9.182;2022-08-25T01:44:52;5.68;;;3.95;;
3307;SDS011;1666;48.898;9.182;2022-08-25T01:47:22;4.68;;;3.55;;
3307;SDS011;1666;48.898;9.182;2022-08-25T01:49:52;4.03;;;3.63;;
3307;SDS011;1666;48.898;9.182;2022-08-25T01:52:26;6.22;;;3.65;;
3307;SDS011;1666;48.898;9.182;2022-08-25T01:55:00;4.95;;;3.55;;
3307;SDS011;1666;48.898;9.182;2022-08-25T01:57:30;4.97;;;3.63;;
3307;SDS011;1666;48.898;9.182;2022-08-25T02:00:00;5.32;;;3.72;;
3307;SDS011;1666;48.898;9.182;2022-08-25T02:02:30;8.15;;;3.90;;
3307;SDS011;1666;48.898;9.182;2022-08-25T02:05:01;5.68;;;3.83;;
3307;SDS011;1666;48.898;9.182;2022-08-25T02:07:34;7.60;;;3.88;;
3307;SDS011;1666;48.898;9.182;2022-08-25T02:10:05;5.85;;;3.30;;
3307;SDS011;1666;48.898;9.182;2022-08-25T02:12:36;4.07;;;3.45;;
3307;SDS011;1666;48.898;9.182;2022-08-25T02:15:07;6.55;;;4.20;;
3307;SDS011;1666;48.898;9.182;2022-08-25T02:17:37;4.55;;;4.07;;
3307;SDS011;1666;48.898;9.182;2022-08-25T02:20:07;7.32;;;4.00;;
3307;SDS011;1666;48.898;9.182;2022-08-25T02:22:40;8.00;;;4.55;;
3307;SDS011;1666;48.898;9.182;2022-08-25T02:25:22;5.25;;;4.20;;
3307;SDS011;1666;48.898;9.182;2022-08-25T02:27:52;8.30;;;4.30;;
3307;SDS011;1666;48.898;9.182;2022-08-25T02:30:22;6.30;;;4.47;;
3307;SDS011;1666;48.898;9.182;2022-08-25T02:32:52;6.78;;;4.43;;
3307;SDS011;1666;48.898;9.182;2022-08-25T02:35:23;5.28;;;4.13;;
3307;SDS011;1666;48.898;9.182;2022-08-25T02:37:55;5.15;;;4.13;;
3307;SDS011;1666;48.898;9.182;2022-08-25T02:40:25;8.68;;;5.38;;
3307;SDS011;1666;48.898;9.182;2022-08-25T02:42:55;6.43;;;4.85;;
3307;SDS011;1666;48.898;9.182;2022-08-25T02:45:25;8.82;;;5.32;;
3307;SDS011;1666;48.898;9.182;2022-08-25T02:47:55;5.68;;;4.60;;
3307;SDS011;1666;48.898;9.182;2022-08-25T02:50:25;7.53;;;5.07;;
3307;SDS011;1666;48.898;9.182;2022-08-25T02:52:57;6.00;;;4.57;;
3307;SDS011;1666;48.898;9.182;2022-08-25T02:55:27;6.25;;;4.85;;
3307;SDS011;1666;48.898;9.182;2022-08-25T02:58:00;5.88;;;4.43;;
3307;SDS011;1666;48.898;9.182;2022-08-25T03:00:30;6.82;;;4.75;;
3307;SDS011;1666;48.898;9.182;2022-08-25T03:03:00;6.97;;;4.80;;
3307;SDS011;1666;48.898;9.182;2022-08-25T03:05:30;5.78;;;4.55;;
3307;SDS011;1666;48.898;9.182;2022-08-25T03:08:04;5.18;;;4.50;;
3307;SDS011;1666;48.898;9.182;2022-08-25T03:10:36;6.18;;;4.60;;
3307;SDS011;1666;48.898;9.182;2022-08-25T03:13:06;6.07;;;4.55;;
3307;SDS011;1666;48.898;9.182;2022-08-25T03:15:36;5.20;;;4.63;;
3307;SDS011;1666;48.898;9.182;2022-08-25T03:18:07;6.80;;;4.75;;
3307;SDS011;1666;48.898;9.182;2022-08-25T03:20:39;6.50;;;4.53;;
3307;SDS011;1666;48.898;9.182;2022-08-25T03:23:12;6.35;;;4.95;;
3307;SDS011;1666;48.898;9.182;2022-08-25T03:25:43;7.05;;;4.80;;
3307;SDS011;1666;48.898;9.182;2022-08-25T03:28:27;5.03;;;4.22;;
3307;SDS011;1666;48.898;9.182;2022-08-25T03:30:59;11.77;;;5.15;;
3307;SDS011;1666;48.898;9.182;2022-08-25T03:33:29;7.55;;;5.32;;
3307;SDS011;1666;48.898;9.182;2022-08-25T03:36:00;4.43;;;3.92;;
3307;SDS011;1666;48.898;9.182;2022-08-25T03:38:33;6.55;;;5.18;;
3307;SDS011;1666;48.898;9.182;2022-08-25T03:41:10;5.73;;;4.80;;
3307;SDS011;1666;48.898;9.182;2022-08-25T03:43:41;8.07;;;4.82;;
3307;SDS011;1666;48.898;9.182;2022-08-25T03:46:17;6.38;;;5.10;;
3307;SDS011;1666;48.898;9.182;2022-08-25T03:51:18;5.97;;;4.72;;
3307;SDS011;1666;48.898;9.182;2022-08-25T03:53:52;10.23;;;4.78;;
3307;SDS011;1666;48.898;9.182;2022-08-25T03:56:22;5.95;;;4.82;;
3307;SDS011;1666;48.898;9.182;2022-08-25T03:58:53;5.18;;;4.30;;
3307;SDS011;1666;48.898;9.182;2022-08-25T04:01:24;7.45;;;4.63;;
3307;SDS011;1666;48.898;9.182;2022-08-25T04:03:54;6.28;;;4.75;;
3307;SDS011;1666;48.898;9.182;2022-08-25T04:06:24;7.60;;;5.05;;
3307;SDS011;1666;48.898;9.182;2022-08-25T04:08:57;7.05;;;5.05;;
3307;SDS011;1666;48.898;9.182;2022-08-25T04:11:27;6.25;;;4.63;;
3307;SDS011;1666;48.898;9.182;2022-08-25T04:13:57;6.30;;;5.07;;
3307;SDS011;1666;48.898;9.182;2022-08-25T04:16:29;6.43;;;5.38;;
3307;SDS011;1666;48.898;9.182;2022-08-25T04:19:01;6.85;;;5.35;;
3307;SDS011;1666;48.898;9.182;2022-08-25T04:21:35;8.00;;;5.32;;
3307;SDS011;1666;48.898;9.182;2022-08-25T04:24:09;7.50;;;5.50;;
3307;SDS011;1666;48.898;9.182;2022-08-25T04:26:41;6.95;;;5.35;;
3307;SDS011;1666;48.898;9.182;2022-08-25T04:29:14;7.63;;;5.05;;
3307;SDS011;1666;48.898;9.182;2022-08-25T04:31:49;6.88;;;5.75;;
3307;SDS011;1666;48.898;9.182;2022-08-25T04:34:20;7.57;;;5.55;;
3307;SDS011;1666;48.898;9.182;2022-08-25T04:36:57;8.70;;;5.65;;
3307;SDS011;1666;48.898;9.182;2022-08-25T04:39:31;7.72;;;5.40;;
3307;SDS011;1666;48.898;9.182;2022-08-25T04:42:02;5.40;;;4.90;;
3307;SDS011;1666;48.898;9.182;2022-08-25T04:44:32;6.85;;;5.30;;
3307;SDS011;1666;48.898;9.182;2022-08-25T04:47:02;7.88;;;5.40;;
3307;SDS011;1666;48.898;9.182;2022-08-25T04:49:33;6.15;;;5.28;;
3307;SDS011;1666;48.898;9.182;2022-08-25T04:52:03;8.88;;;5.65;;
3307;SDS011;1666;48.898;9.182;2022-08-25T04:54:42;10.18;;;5.60;;
3307;SDS011;1666;48.898;9.182;2022-08-25T04:57:12;9.10;;;5.55;;
3307;SDS011;1666;48.898;9.182;2022-08-25T04:59:42;6.93;;;5.57;;
3307;SDS011;1666;48.898;9.182;2022-08-25T05:02:12;8.68;;;5.18;;
3307;SDS011;1666;48.898;9.182;2022-08-25T05:04:42;7.68;;;5.15;;
3307;SDS011;1666;48.898;9.182;2022-08-25T05:07:11;6.53;;;5.40;;
3307;SDS011;1666;48.898;9.182;2022-08-25T05:09:44;7.50;;;5.00;;
3307;SDS011;1666;48.898;9.182;2022-08-25T05:12:14;8.80;;;5.22;;
3307;SDS011;1666;48.898;9.182;2022-08-25T05:14:45;8.25;;;5.80;;
3307;SDS011;1666;48.898;9.182;2022-08-25T05:17:15;6.97;;;4.97;;
3307;SDS011;1666;48.898;9.182;2022-08-25T05:19:47;8.07;;;5.32;;
3307;SDS011;1666;48.898;9.182;2022-08-25T05:22:17;6.97;;;5.35;;
3307;SDS011;1666;48.898;9.182;2022-08-25T05:24:50;7.32;;;5.82;;
3307;SDS011;1666;48.898;9.182;2022-08-25T05:27:20;9.02;;;5.78;;
3307;SDS011;1666;48.898;9.182;2022-08-25T05:29:50;8.02;;;5.85;;
3307;SDS011;1666;48.898;9.182;2022-08-25T05:32:19;9.63;;;6.40;;
3307;SDS011;1666;48.898;9.182;2022-08-25T05:34:50;8.07;;;6.70;;
3307;SDS011;1666;48.898;9.182;2022-08-25T05:37:20;8.88;;;6.50;;
3307;SDS011;1666;48.898;9.182;2022-08-25T05:39:52;8.38;;;6.05;;
3307;SDS011;1666;48.898;9.182;2022-08-25T05:42:22;8.45;;;7.05;;
3307;SDS011;1666;48.898;9.182;2022-08-25T05:44:52;11.10;;;6.90;;
3307;SDS011;1666;48.898;9.182;2022-08-25T05:47:22;9.55;;;6.72;;
3307;SDS011;1666;48.898;9.182;2022-08-25T05:49:52;8.27;;;6.15;;
3307;SDS011;1666;48.898;9.182;2022-08-25T05:52:25;9.82;;;7.30;;
3307;SDS011;1666;48.898;9.182;2022-08-25T05:54:58;9.27;;;6.97;;
3307;SDS011;1666;48.898;9.182;2022-08-25T05:57:28;8.95;;;6.70;;
3307;SDS011;1666;48.898;9.182;2022-08-25T05:59:58;9.30;;;7.15;;
3307;SDS011;1666;48.898;9.182;2022-08-25T06:02:28;7.93;;;6.47;;
3307;SDS011;1666;48.898;9.182;2022-08-25T06:05:10;9.35;;;7.00;;
3307;SDS011;1666;48.898;9.182;2022-08-25T06:07:42;9.23;;;6.78;;
3307;SDS011;1666;48.898;9.182;2022-08-25T06:10:15;7.75;;;6.47;;
3307;SDS011;1666;48.898;9.182;2022-08-25T06:12:46;9.15;;;7.03;;
3307;SDS011;1666;48.898;9.182;2022-08-25T06:15:18;9.15;;;7.10;;
3307;SDS011;1666;48.898;9.182;2022-08-25T06:17:50;8.20;;;6.90;;
3307;SDS011;1666;48.898;9.182;2022-08-25T06:20:29;9.68;;;7.25;;
3307;SDS011;1666;48.898;9.182;2022-08-25T06:23:00;9.75;;;7.03;;
3307;SDS011;1666;48.898;9.182;2022-08-25T06:25:32;8.00;;;6.60;;
3307;SDS011;1666;48.898;9.182;2022-08-25T06:28:02;10.35;;;7.15;;
3307;SDS011;1666;48.898;9.182;2022-08-25T06:30:32;8.40;;;6.43;;
3307;SDS011;1666;48.898;9.182;2022-08-25T06:33:02;9.13;;;7.55;;
3307;SDS011;1666;48.898;9.182;2022-08-25T06:35:32;9.48;;;6.90;;
3307;SDS011;1666;48.898;9.182;2022-08-25T06:38:03;8.55;;;6.72;;
3307;SDS011;1666;48.898;9.182;2022-08-25T06:40:35;10.18;;;5.95;;
3307;SDS011;1666;48.898;9.182;2022-08-25T06:43:06;9.05;;;6.47;;
3307;SDS011;1666;48.898;9.182;2022-08-25T06:45:36;12.52;;;7.00;;
3307;SDS011;1666;48.898;9.182;2022-08-25T06:48:05;8.00;;;6.07;;
3307;SDS011;1666;48.898;9.182;2022-08-25T06:50:36;7.65;;;6.53;;
3307;SDS011;1666;48.898;9.182;2022-08-25T06:53:07;8.57;;;6.57;;
3307;SDS011;1666;48.898;9.182;2022-08-25T06:55:40;7.03;;;5.82;;
3307;SDS011;1666;48.898;9.182;2022-08-25T06:58:10;8.23;;;6.32;;
3307;SDS011;1666;48.898;9.182;2022-08-25T07:00:39;9.90;;;6.45;;
3307;SDS011;1666;48.898;9.182;2022-08-25T07:03:10;7.95;;;5.78;;
3307;SDS011;1666;48.898;9.182;2022-08-25T07:05:40;8.82;;;6.00;;
3307;SDS011;1666;48.898;9.182;2022-08-25T07:08:10;9.95;;;6.20;;
3307;SDS011;1666;48.898;9.182;2022-08-25T07:10:42;7.15;;;6.05;;
3307;SDS011;1666;48.898;9.182;2022-08-25T07:13:13;10.40;;;6.32;;
3307;SDS011;1666;48.898;9.182;2022-08-25T07:15:44;7.90;;;6.32;;
3307;SDS011;1666;48.898;9.182;2022-08-25T07:18:13;10.68;;;6.25;;
3307;SDS011;1666;48.898;9.182;2022-08-25T07:20:43;7.78;;;6.00;;
3307;SDS011;1666;48.898;9.182;2022-08-25T07:23:13;7.03;;;5.70;;
3307;SDS011;1666;48.898;9.182;2022-08-25T07:25:46;8.80;;;5.63;;
3307;SDS011;1666;48.898;9.182;2022-08-25T07:28:16;7.07;;;6.03;;
3307;SDS011;1666;48.898;9.182;2022-08-25T07:30:46;7.78;;;5.93;;
3307;SDS011;1666;48.898;9.182;2022-08-25T07:33:17;8.27;;;5.47;;
3307;SDS011;1666;48.898;9.182;2022-08-25T07:35:47;7.60;;;5.70;;
3307;SDS011;1666;48.898;9.182;2022-08-25T07:38:16;6.60;;;5.68;;
3307;SDS011;1666;48.898;9.182;2022-08-25T07:40:49;5.95;;;5.22;;
3307;SDS011;1666;48.898;9.182;2022-08-25T07:43:22;7.00;;;4.97;;
3307;SDS011;1666;48.898;9.182;2022-08-25T07:45:52;9.23;;;5.53;;
3307;SDS011;1666;48.898;9.182;2022-08-25T07:48:22;6.20;;;5.00;;
3307;SDS011;1666;48.898;9.182;2022-08-25T07:50:52;10.38;;;7.88;;
3307;SDS011;1666;48.898;9.182;2022-08-25T07:53:22;8.40;;;5.40;;
3307;SDS011;1666;48.898;9.182;2022-08-25T07:55:54;6.18;;;5.43;;
3307;SDS011;1666;48.898;9.182;2022-08-25T07:58:24;6.50;;;5.00;;
3307;SDS011;1666;48.898;9.182;2022-08-25T08:00:54;6.32;;;5.65;;
3307;SDS011;1666;48.898;9.182;2022-08-25T08:03:24;10.77;;;5.63;;
3307;SDS011;1666;48.898;9.182;2022-08-25T08:06:11;8.15;;;5.30;;
3307;SDS011;1666;48.898;9.182;2022-08-25T08:08:43;7.93;;;5.53;;
3307;SDS011;1666;48.898;9.182;2022-08-25T08:11:18;6.75;;;5.50;;
3307;SDS011;1666;48.898;9.182;2022-08-25T08:13:51;9.10;;;4.95;;
3307;SDS011;1666;48.898;9.182;2022-08-25T08:16:23;5.88;;;5.28;;
3307;SDS011;1666;48.898;9.182;2022-08-25T08:18:55;5.25;;;4.75;;
3307;SDS011;1666;48.898;9.182;2022-08-25T08:21:27;6.47;;;5.85;;
3307;SDS011;1666;48.898;9.182;2022-08-25T08:23:58;6.13;;;5.35;;
3307;SDS011;1666;48.898;9.182;2022-08-25T08:26:42;7.38;;;5.85;;
3307;SDS011;1666;48.898;9.182;2022-08-25T08:29:24;6.38;;;5.03;;
3307;SDS011;1666;48.898;9.182;2022-08-25T08:31:56;6.20;;;5.13;;
3307;SDS011;1666;48.898;9.182;2022-08-25T08:34:26;8.15;;;5.93;;
3307;SDS011;1666;48.898;9.182;2022-08-25T08:36:57;7.15;;;5.80;;
3307;SDS011;1666;48.898;9.182;2022-08-25T08:39:28;8.50;;;5.50;;
3307;SDS011;1666;48.898;9.182;2022-08-25T08:42:06;6.72;;;5.32;;
3307;SDS011;1666;48.898;9.182;2022-08-25T08:44:52;6.85;;;5.50;;
3307;SDS011;1666;48.898;9.182;2022-08-25T08:47:33;6.93;;;5.28;;
3307;SDS011;1666;48.898;9.182;2022-08-25T08:50:22;6.45;;;5.13;;
3307;SDS011;1666;48.898;9.182;2022-08-25T08:53:02;10.23;;;6.07;;
3307;SDS011;1666;48.898;9.182;2022-08-25T08:55:36;8.20;;;5.90;;
3307;SDS011;1666;48.898;9.182;2022-08-25T08:58:15;6.78;;;4.85;;
3307;SDS011;1666;48.898;9.182;2022-08-25T09:00:52;7.10;;;5.30;;
3307;SDS011;1666;48.898;9.182;2022-08-25T09:03:26;6.40;;;5.10;;
3307;SDS011;1666;48.898;9.182;2022-08-25T09:06:07;7.15;;;5.82;;
3307;SDS011;1666;48.898;9.182;2022-08-25T09:08:40;7.88;;;5.80;;
3307;SDS011;1666;48.898;9.182;2022-08-25T09:11:12;5.65;;;4.72;;
3307;SDS011;1666;48.898;9.182;2022-08-25T09:14:01;6.68;;;4.65;;
3307;SDS011;1666;48.898;9.182;2022-08-25T09:16:38;10.05;;;4.93;;
3307;SDS011;1666;48.898;9.182;2022-08-25T09:19:29;5.10;;;4.60;;
3307;SDS011;1666;48.898;9.182;2022-08-25T09:22:20;4.75;;;4.30;;
3307;SDS011;1666;48.898;9.182;2022-08-25T09:25:04;5.18;;;4.32;;
3307;SDS011;1666;48.898;9.182;2022-08-25T09:27:50;8.10;;;4.57;;
3307;SDS011;1666;48.898;9.182;2022-08-25T09:30:33;6.60;;;5.03;;
3307;SDS011;1666;48.898;9.182;2022-08-25T09:33:14;4.82;;;4.32;;
3307;SDS011;1666;48.898;9.182;2022-08-25T09:35:47;5.35;;;4.28;;
3307;SDS011;1666;48.898;9.182;2022-08-25T09:38:19;4.50;;;4.10;;
3307;SDS011;1666;48.898;9.182;2022-08-25T09:40:50;5.38;;;4.88;;
3307;SDS011;1666;48.898;9.182;2022-08-25T09:43:23;5.53;;;4.60;;
3307;SDS011;1666;48.898;9.182;2022-08-25T09:46:02;5.82;;;5.18;;
3307;SDS011;1666;48.898;9.182;2022-08-25T09:48:43;5.47;;;4.35;;
3307;SDS011;1666;48.898;9.182;2022-08-25T09:51:24;4.97;;;4.20;;
3307;SDS011;1666;48.898;9.182;2022-08-25T09:54:04;5.22;;;4.72;;
3307;SDS011;1666;48.898;9.182;2022-08-25T09:56:51;7.97;;;4.30;;
3307;SDS011;1666;48.898;9.182;2022-08-25T09:59:23;5.72;;;4.20;;
3307;SDS011;1666;48.898;9.182;2022-08-25T10:02:04;5.25;;;4.60;;
3307;SDS011;1666;48.898;9.182;2022-08-25T10:04:41;4.45;;;4.05;;
3307;SDS011;1666;48.898;9.182;2022-08-25T10:07:18;6.60;;;4.20;;
3307;SDS011;1666;48.898;9.182;2022-08-25T10:09:52;6.95;;;5.32;;
3307;SDS011;1666;48.898;9.182;2022-08-25T10:12:29;6.03;;;4.20;;
3307;SDS011;1666;48.898;9.182;2022-08-25T10:15:14;5.18;;;3.95;;
3307;SDS011;1666;48.898;9.182;2022-08-25T10:17:58;5.05;;;4.20;;
3307;SDS011;1666;48.898;9.182;2022-08-25T10:20:59;6.07;;;4.15;;
3307;SDS011;1666;48.898;9.182;2022-08-25T10:23:36;5.55;;;4.40;;
3307;SDS011;1666;48.898;9.182;2022-08-25T10:26:13;5.32;;;3.88;;
3307;SDS011;1666;48.898;9.182;2022-08-25T10:28:53;5.20;;;4.05;;
3307;SDS011;1666;48.898;9.182;2022-08-25T10:31:33;4.65;;;4.05;;
3307;SDS011;1666;48.898;9.182;2022-08-25T10:34:14;4.35;;;3.95;;
3307;SDS011;1666;48.898;9.182;2022-08-25T10:36:55;7.53;;;4.35;;
3307;SDS011;1666;48.898;9.182;2022-08-25T10:39:37;6.05;;;4.78;;
3307;SDS011;1666;48.898;9.182;2022-08-25T10:42:27;6.55;;;4.50;;
3307;SDS011;1666;48.898;9.182;2022-08-25T10:45:05;4.53;;;4.13;;
3307;SDS011;1666;48.898;9.182;2022-08-25T10:48:03;8.55;;;4.60;;
3307;SDS011;1666;48.898;9.182;2022-08-25T10:50:51;7.28;;;4.38;;
3307;SDS011;1666;48.898;9.182;2022-08-25T10:53:28;6.07;;;4.28;;
3307;SDS011;1666;48.898;9.182;2022-08-25T10:56:10;5.15;;;3.97;;
3307;SDS011;1666;48.898;9.182;2022-08-25T10:58:55;5.70;;;4.00;;
3307;SDS011;1666;48.898;9.182;2022-08-25T11:01:52;5.90;;;3.53;;
3307;SDS011;1666;48.898;9.182;2022-08-25T11:04:51;4.25;;;3.75;;
3307;SDS011;1666;48.898;9.182;2022-08-25T11:07:30;5.10;;;4.13;;
3307;SDS011;1666;48.898;9.182;2022-08-25T11:10:04;5.53;;;4.18;;
3307;SDS011;1666;48.898;9.182;2022-08-25T11:12:39;5.38;;;4.13;;
3307;SDS011;1666;48.898;9.182;2022-08-25T11:15:16;5.80;;;4.20;;
3307;SDS011;1666;48.898;9.182;2022-08-25T11:17:52;5.10;;;4.10;;
3307;SDS011;1666;48.898;9.182;2022-08-25T11:20:30;4.72;;;4.00;;
3307;SDS011;1666;48.898;9.182;2022-08-25T11:23:09;5.47;;;4.28;;
3307;SDS011;1666;48.898;9.182;2022-08-25T11:25:43;5.10;;;4.03;;
3307;SDS011;1666;48.898;9.182;2022-08-25T11:28:17;6.43;;;4.32;;
3307;SDS011;1666;48.898;9.182;2022-08-25T11:30:55;5.70;;;4.10;;
3307;SDS011;1666;48.898;9.182;2022-08-25T11:33:28;6.45;;;4.20;;
3307;SDS011;1666;48.898;9.182;2022-08-25T11:35:59;5.63;;;4.43;;
3307;SDS011;1666;48.898;9.182;2022-08-25T11:38:42;4.57;;;4.03;;
3307;SDS011;1666;48.898;9.182;2022-08-25T11:41:26;3.80;;;3.40;;
3307;SDS011;1666;48.898;9.182;2022-08-25T11:44:07;5.30;;;3.80;;
3307;SDS011;1666;48.898;9.182;2022-08-25T11:46:51;5.45;;;3.95;;
3307;SDS011;1666;48.898;9.182;2022-08-25T11:49:51;4.43;;;3.90;;
3307;SDS011;1666;48.898;9.182;2022-08-25T11:55:19;4.00;;;3.60;;
3307;SDS011;1666;48.898;9.182;2022-08-25T12:00:57;4.57;;;3.83;;
3307;SDS011;1666;48.898;9.182;2022-08-25T12:06:22;7.70;;;3.80;;
3307;SDS011;1666;48.898;9.182;2022-08-25T12:11:53;5.15;;;3.80;;
3307;SDS011;1666;48.898;9.182;2022-08-25T12:14:37;5.15;;;3.67;;
3307;SDS011;1666;48.898;9.182;2022-08-25T12:17:22;4.95;;;3.67;;
3307;SDS011;1666;48.898;9.182;2022-08-25T12:20:05;5.57;;;3.90;;
3307;SDS011;1666;48.898;9.182;2022-08-25T12:31:22;4.70;;;3.97;;
3307;SDS011;1666;48.898;9.182;2022-08-25T12:34:02;4.10;;;3.30;;
3307;SDS011;1666;48.898;9.182;2022-08-25T12:36:55;3.80;;;3.00;;
3307;SDS011;1666;48.898;9.182;2022-08-25T12:39:32;4.72;;;3.38;;
3307;SDS011;1666;48.898;9.182;2022-08-25T12:42:06;3.65;;;3.35;;
3307;SDS011;1666;48.898;9.182;2022-08-25T12:51:00;3.50;;;3.20;;
3307;SDS011;1666;48.898;9.182;2022-08-25T12:53:34;6.38;;;3.30;;
3307;SDS011;1666;48.898;9.182;2022-08-25T12:56:07;4.97;;;3.10;;
3307;SDS011;1666;48.898;9.182;2022-08-25T12:58:48;5.07;;;3.35;;
3307;SDS011;1666;48.898;9.182;2022-08-25T13:01:31;3.80;;;3.45;;
3307;SDS011;1666;48.898;9.182;2022-08-25T13:04:12;4.40;;;3.33;;
3307;SDS011;1666;48.898;9.182;2022-08-25T13:07:08;5.15;;;3.90;;
3307;SDS011;1666;48.898;9.182;2022-08-25T13:12:42;6.82;;;3.40;;
3307;SDS011;1666;48.898;9.182;2022-08-25T13:15:25;3.10;;;2.80;;
3307;SDS011;1666;48.898;9.182;2022-08-25T13:18:15;4.50;;;2.97;;
3307;SDS011;1666;48.898;9.182;2022-08-25T13:20:47;3.30;;;2.88;;
3307;SDS011;1666;48.898;9.182;2022-08-25T13:23:23;4.68;;;3.15;;
3307;SDS011;1666;48.898;9.182;2022-08-25T13:25:56;4.30;;;3.17;;
3307;SDS011;1666;48.898;9.182;2022-08-25T13:28:27;5.15;;;3.10;;
3307;SDS011;1666;48.898;9.182;2022-08-25T13:31:01;2.83;;;2.45;;
3307;SDS011;1666;48.898;9.182;2022-08-25T13:33:35;8.68;;;3.53;;
3307;SDS011;1666;48.898;9.182;2022-08-25T13:36:05;6.68;;;3.20;;
3307;SDS011;1666;48.898;9.182;2022-08-25T13:39:08;3.33;;;2.90;;
3307;SDS011;1666;48.898;9.182;2022-08-25T13:41:44;4.55;;;3.30;;
3307;SDS011;1666;48.898;9.182;2022-08-25T13:44:21;4.20;;;3.08;;
3307;SDS011;1666;48.898;9.182;2022-08-25T13:47:03;3.00;;;2.70;;
3307;SDS011;1666;48.898;9.182;2022-08-25T13:49:38;4.07;;;2.83;;
3307;SDS011;1666;48.898;9.182;2022-08-25T13:52:14;3.45;;;2.95;;
3307;SDS011;1666;48.898;9.182;2022-08-25T13:54:56;3.07;;;2.77;;
3307;SDS011;1666;48.898;9.182;2022-08-25T13:57:30;4.18;;;2.60;;
3307;SDS011;1666;48.898;9.182;2022-08-25T14:00:05;5.85;;;2.70;;
3307;SDS011;1666;48.898;9.182;2022-08-25T14:02:39;2.78;;;2.58;;
3307;SDS011;1666;48.898;9.182;2022-08-25T14:05:30;2.90;;;2.53;;
3307;SDS011;1666;48.898;9.182;2022-08-25T14:08:03;3.60;;;2.53;;
3307;SDS011;1666;48.898;9.182;2022-08-25T14:10:52;2.78;;;2.35;;
3307;SDS011;1666;48.898;9.182;2022-08-25T14:13:40;4.13;;;3.08;;
3307;SDS011;1666;48.898;9.182;2022-08-25T14:16:17;4.07;;;2.70;;
3307;SDS011;1666;48.898;9.182;2022-08-25T14:18:52;3.72;;;2.67;;
3307;SDS011;1666;48.898;9.182;2022-08-25T14:21:28;3.45;;;2.83;;
3307;SDS011;1666;48.898;9.182;2022-08-25T14:24:00;3.95;;;2.70;;
3307;SDS011;1666;48.898;9.182;2022-08-25T14:26:31;4.43;;;2.97;;
3307;SDS011;1666;48.898;9.182;2022-08-25T14:29:01;3.10;;;2.80;;
3307;SDS011;1666;48.898;9.182;2022-08-25T14:31:35;3.05;;;2.80;;
3307;SDS011;1666;48.898;9.182;2022-08-25T14:36:44;3.13;;;2.50;;
3307;SDS011;1666;48.898;9.182;2022-08-25T14:39:14;3.45;;;2.70;;
3307;SDS011;1666;48.898;9.182;2022-08-25T14:41:44;3.22;;;2.40;;
3307;SDS011;1666;48.898;9.182;2022-08-25T14:44:18;2.95;;;2.33;;
3307;SDS011;1666;48.898;9.182;2022-08-25T14:46:53;3.75;;;2.45;;
3307;SDS011;1666;48.898;9.182;2022-08-25T14:49:25;2.97;;;2.75;;
3307;SDS011;1666;48.898;9.182;2022-08-25T14:52:03;2.65;;;2.35;;
3307;SDS011;1666;48.898;9.182;2022-08-25T14:54:38;2.92;;;2.63;;
3307;SDS011;1666;48.898;9.182;2022-08-25T14:57:08;2.72;;;2.53;;
3307;SDS011;1666;48.898;9.182;2022-08-25T14:59:38;3.28;;;2.92;;
3307;SDS011;1666;48.898;9.182;2022-08-25T15:02:08;5.63;;;2.72;;
3307;SDS011;1666;48.898;9.182;2022-08-25T15:04:46;2.58;;;2.33;;
3307;SDS011;1666;48.898;9.182;2022-08-25T15:07:23;3.28;;;2.70;;
3307;SDS011;1666;48.898;9.182;2022-08-25T15:10:06;4.60;;;2.80;;
3307;SDS011;1666;48.898;9.182;2022-08-25T15:12:39;2.67;;;2.47;;
3307;SDS011;1666;48.898;9.182;2022-08-25T15:15:19;3.13;;;2.35;;
3307;SDS011;1666;48.898;9.182;2022-08-25T15:17:51;4.93;;;4.05;;
3307;SDS011;1666;48.898;9.182;2022-08-25T15:20:26;5.70;;;3.22;;
3307;SDS011;1666;48.898;9.182;2022-08-25T15:22:59;3.80;;;3.20;;
3307;SDS011;1666;48.898;9.182;2022-08-25T15:25:29;4.00;;;2.50;;
3307;SDS011;1666;48.898;9.182;2022-08-25T15:28:02;4.00;;;2.85;;
3307;SDS011;1666;48.898;9.182;2022-08-25T15:30:35;2.95;;;2.70;;
3307;SDS011;1666;48.898;9.182;2022-08-25T15:33:09;2.92;;;2.55;;
3307;SDS011;1666;48.898;9.182;2022-08-25T15:35:39;5.55;;;2.88;;
3307;SDS011;1666;48.898;9.182;2022-08-25T15:38:13;3.67;;;2.45;;
3307;SDS011;1666;48.898;9.182;2022-08-25T15:40:44;4.30;;;2.90;;
3307;SDS011;1666;48.898;9.182;2022-08-25T15:43:14;2.60;;;2.40;;
3307;SDS011;1666;48.898;9.182;2022-08-25T15:45:44;2.65;;;2.45;;
3307;SDS011;1666;48.898;9.182;2022-08-25T15:48:16;4.57;;;2.80;;
3307;SDS011;1666;48.898;9.182;2022-08-25T15:50:46;2.80;;;2.22;;
3307;SDS011;1666;48.898;9.182;2022-08-25T15:53:20;3.17;;;2.50;;
3307;SDS011;1666;48.898;9.182;2022-08-25T15:55:51;3.53;;;2.60;;
3307;SDS011;1666;48.898;9.182;2022-08-25T15:58:26;2.50;;;2.30;;
3307;SDS011;1666;48.898;9.182;2022-08-25T16:00:56;2.58;;;2.38;;
3307;SDS011;1666;48.898;9.182;2022-08-25T16:03:26;3.75;;;2.53;;
3307;SDS011;1666;48.898;9.182;2022-08-25T16:05:56;2.95;;;2.70;;
3307;SDS011;1666;48.898;9.182;2022-08-25T16:08:29;3.92;;;2.75;;
3307;SDS011;1666;48.898;9.182;2022-08-25T16:10:59;2.75;;;2.45;;
3307;SDS011;1666;48.898;9.182;2022-08-25T16:13:28;4.85;;;2.90;;
3307;SDS011;1666;48.898;9.182;2022-08-25T16:15:59;4.38;;;2.58;;
3307;SDS011;1666;48.898;9.182;2022-08-25T16:18:29;2.90;;;2.60;;
3307;SDS011;1666;48.898;9.182;2022-08-25T16:20:59;7.60;;;2.40;;
3307;SDS011;1666;48.898;9.182;2022-08-25T16:23:40;3.72;;;2.60;;
3307;SDS011;1666;48.898;9.182;2022-08-25T16:26:12;4.10;;;2.50;;
3307;SDS011;1666;48.898;9.182;2022-08-25T16:28:42;4.10;;;3.38;;
3307;SDS011;1666;48.898;9.182;2022-08-25T16:31:13;2.80;;;2.17;;
3307;SDS011;1666;48.898;9.182;2022-08-25T16:33:44;3.60;;;2.80;;
3307;SDS011;1666;48.898;9.182;2022-08-25T16:36:21;2.70;;;2.35;;